Forest Row, United Kingdom
Current Conditions -  °F | °C
As of 10:50 AM on Saturday 25 Oct 2014 (Local Time) from EGKK Reporting Station
Broken Clouds Broken Clouds  
Wind Chill: 12°   Ceiling: 3800
Heat Index: 12°   Visibility: 6mi
Dew Point:   Wind: 7mph
Humidity: 77%   Direction: 230°SW
Pressure: 30.09"   Gusts: NA
Location:  51.1°N, 0.03°E
Report Text: EGKK 250950Z 23006KT 9999 BKN038 12/08 Q1019
Loading
Personal Weather Stations






























Interactive Weather Map
Tropical Storm Tracking
New forecast layout! Learn more

10-Day Weather Forecast

Advertisements
Track Severe Weather on mobile